createdAt,value
2018-08-31T13:22:39.066Z,1002.34
2018-08-31T13:23:38.989Z,1002.33
2018-08-31T13:24:38.985Z,1002.30
2018-08-31T13:25:38.959Z,1002.35
2018-08-31T13:26:38.937Z,1002.23
2018-08-31T13:27:38.922Z,1002.26
2018-08-31T13:28:38.912Z,1002.20
2018-08-31T13:32:45.570Z,1002.57
2018-08-31T13:33:45.588Z,1002.52
2018-08-31T13:34:45.547Z,1002.53
2018-08-31T13:35:45.537Z,1002.52
2018-08-31T13:36:45.527Z,1002.53
2018-08-31T13:37:45.521Z,1002.50
2018-08-31T13:38:45.509Z,1002.85
2018-08-31T13:39:45.533Z,1002.79
2018-08-31T13:40:45.488Z,1002.47
2018-08-31T13:41:45.629Z,1002.51
2018-08-31T13:42:45.463Z,1002.44
2018-08-31T13:43:45.460Z,1002.49
2018-08-31T13:44:45.450Z,1002.52
2018-08-31T13:45:45.481Z,1002.58
2018-08-31T13:46:45.432Z,1002.58
2018-08-31T13:47:45.471Z,1002.57
2018-08-31T13:48:45.400Z,1002.61
2018-08-31T13:49:45.392Z,1002.82
2018-08-31T13:50:45.378Z,1002.79
2018-08-31T13:51:45.414Z,1002.78
2018-08-31T13:52:45.463Z,1002.80
2018-08-31T13:53:45.356Z,1002.76
2018-08-31T13:54:45.351Z,1002.81
2018-08-31T13:55:45.332Z,1002.81
2018-08-31T13:56:45.326Z,1002.81
2018-08-31T13:57:45.401Z,1002.88
2018-08-31T13:58:45.329Z,1002.89
2018-08-31T13:59:45.335Z,1002.90
2018-08-31T14:00:45.282Z,1002.90
2018-08-31T14:01:45.647Z,1002.70
2018-08-31T14:02:45.255Z,1002.86
2018-08-31T14:03:45.455Z,1002.85
2018-08-31T14:04:45.318Z,1002.95
2018-08-31T14:05:45.275Z,1002.96
2018-08-31T14:06:45.229Z,1002.88
2018-08-31T14:07:45.246Z,1002.90
2018-08-31T14:08:45.188Z,1002.93
2018-08-31T14:09:45.212Z,1003.02
2018-08-31T14:10:45.194Z,1003.03
2018-08-31T14:11:45.159Z,1003.00
2018-08-31T14:12:45.256Z,1003.03
2018-08-31T14:13:45.200Z,1003.06
2018-08-31T14:14:45.128Z,1003.07
2018-08-31T14:15:45.176Z,1003.05
2018-08-31T14:16:45.108Z,1003.11
2018-08-31T14:17:45.104Z,1003.13
2018-08-31T14:18:45.086Z,1002.76
2018-08-31T14:19:45.083Z,1002.77
2018-08-31T14:20:45.070Z,1003.06
2018-08-31T14:21:45.130Z,1003.13
2018-08-31T14:22:45.051Z,1003.06
2018-08-31T14:23:45.033Z,1002.99
2018-08-31T14:24:45.024Z,1002.67
2018-08-31T14:25:45.041Z,1002.63
2018-08-31T14:26:45.032Z,1002.69
2018-08-31T14:27:45.053Z,1002.64
2018-08-31T14:28:44.990Z,1002.67
2018-08-31T14:29:44.996Z,1002.69
2018-08-31T14:30:44.962Z,1002.71
2018-08-31T14:31:44.988Z,1002.67
2018-08-31T14:32:44.940Z,1002.68
2018-08-31T14:33:44.987Z,1002.66
2018-08-31T14:34:44.925Z,1002.68
2018-08-31T14:35:44.932Z,1002.68
2018-08-31T14:36:44.905Z,1002.70
2018-08-31T14:37:44.891Z,1002.69
2018-08-31T14:38:44.890Z,1002.74
2018-08-31T14:39:44.919Z,1002.81
2018-08-31T14:40:44.865Z,1002.77
2018-08-31T14:41:44.889Z,1003.00
2018-08-31T14:42:44.843Z,1002.96
2018-08-31T14:43:44.825Z,1002.99
2018-08-31T14:44:44.821Z,1002.99
2018-08-31T14:45:44.838Z,1003.05
2018-08-31T14:46:44.805Z,1003.05
2018-08-31T14:47:44.827Z,1003.05
2018-08-31T14:48:44.773Z,1003.12
2018-08-31T14:49:44.792Z,1003.11
2018-08-31T14:50:44.761Z,1003.16
2018-08-31T14:51:44.783Z,1003.10
2018-08-31T14:52:44.732Z,1002.90
2018-08-31T14:53:44.739Z,1002.97
2018-08-31T14:54:44.749Z,1003.10
2018-08-31T14:55:44.718Z,1003.11
2018-08-31T14:56:44.699Z,1003.10
2018-08-31T14:57:44.727Z,1003.11
2018-08-31T14:58:44.784Z,1003.07
2018-08-31T14:59:44.664Z,1003.12
2018-08-31T15:00:44.659Z,1003.09
2018-08-31T15:01:44.643Z,1003.06
2018-08-31T15:02:44.629Z,1003.11
2018-08-31T15:03:44.689Z,1003.07
2018-08-31T15:04:44.631Z,1003.06
2018-08-31T15:05:44.650Z,1003.00
2018-08-31T15:06:44.591Z,1003.05
2018-08-31T15:07:44.602Z,1003.02
2018-08-31T15:08:44.571Z,1003.02
2018-08-31T15:09:44.605Z,1003.00
2018-08-31T15:10:44.562Z,1002.97
2018-08-31T15:11:44.538Z,1002.92
2018-08-31T15:12:44.559Z,1002.98
2018-08-31T15:13:44.523Z,1002.98
2018-08-31T15:14:44.514Z,1003.00
2018-08-31T15:15:44.530Z,1002.92
2018-08-31T15:16:44.487Z,1002.92
2018-08-31T15:17:44.479Z,1002.93
2018-08-31T15:18:44.482Z,1002.92
2018-08-31T15:19:44.461Z,1002.91
2018-08-31T15:20:44.444Z,1002.86
2018-08-31T15:21:44.468Z,1002.87
2018-08-31T15:22:44.426Z,1002.89
2018-08-31T15:23:44.416Z,1002.86
2018-08-31T15:24:44.424Z,1002.91
2018-08-31T15:25:44.435Z,1002.82
2018-08-31T15:26:44.383Z,1002.84
2018-08-31T15:27:44.409Z,1002.80
2018-08-31T15:28:44.363Z,1002.82
2018-08-31T15:29:44.352Z,1002.79
2018-08-31T15:30:44.358Z,1002.79
2018-08-31T15:31:44.338Z,1002.78
2018-08-31T15:32:44.321Z,1002.73
2018-08-31T15:33:44.343Z,1002.72
2018-08-31T15:34:44.305Z,1002.76
2018-08-31T15:35:44.291Z,1002.74
2018-08-31T15:36:44.311Z,1002.73
2018-08-31T15:37:44.272Z,1002.67
2018-08-31T15:38:44.268Z,1002.70
2018-08-31T15:39:44.280Z,1002.71
2018-08-31T15:40:44.248Z,1002.72
2018-08-31T15:41:44.232Z,1002.74
2018-08-31T15:42:44.242Z,1002.68
2018-08-31T15:43:44.208Z,1002.68
2018-08-31T15:44:44.197Z,1002.73
2018-08-31T15:45:44.223Z,1002.69
2018-08-31T15:46:44.175Z,1002.69
2018-08-31T15:47:44.169Z,1002.67
2018-08-31T15:48:44.167Z,1002.68
2018-08-31T15:49:44.178Z,1002.68
2018-08-31T15:50:44.134Z,1002.71
2018-08-31T15:51:44.152Z,1002.68
2018-08-31T15:52:44.112Z,1002.72
2018-08-31T15:53:44.106Z,1002.69
2018-08-31T15:54:44.102Z,1002.73
2018-08-31T15:55:44.080Z,1002.70
2018-08-31T15:56:44.068Z,1002.70
2018-08-31T15:57:44.094Z,1002.72
2018-08-31T15:58:44.049Z,1002.68
2018-08-31T15:59:44.042Z,1002.63
2018-08-31T16:00:44.029Z,1002.63
2018-08-31T16:01:44.028Z,1002.64
2018-08-31T16:02:44.006Z,1002.70
2018-08-31T16:03:44.032Z,1002.71
2018-08-31T16:04:43.985Z,1002.69
2018-08-31T16:05:43.972Z,1002.70
2018-08-31T16:06:43.961Z,1002.68
2018-08-31T16:07:43.991Z,1002.74
2018-08-31T16:08:43.943Z,1002.75
2018-08-31T16:09:43.976Z,1002.75
2018-08-31T16:10:43.919Z,1002.75
2018-08-31T16:11:43.908Z,1002.73
2018-08-31T16:12:43.898Z,1002.77
2018-08-31T16:13:43.894Z,1002.72
2018-08-31T16:14:43.881Z,1002.78
2018-08-31T16:15:43.902Z,1002.75
2018-08-31T16:16:43.906Z,1002.76
2018-08-31T16:17:43.862Z,1002.71
2018-08-31T16:18:43.876Z,1002.75
2018-08-31T16:19:43.861Z,1002.70
2018-08-31T16:20:43.877Z,1002.76
2018-08-31T16:21:43.846Z,1002.76
2018-08-31T16:22:43.821Z,1002.75
2018-08-31T16:23:43.821Z,1002.76
2018-08-31T16:24:43.812Z,1002.75
2018-08-31T16:25:43.765Z,1002.75
2018-08-31T16:26:43.785Z,1002.74
2018-08-31T16:27:43.794Z,1002.80
2018-08-31T16:28:43.751Z,1002.77
2018-08-31T16:29:43.743Z,1002.83
2018-08-31T16:30:43.722Z,1002.80
2018-08-31T16:31:43.708Z,1002.79
2018-08-31T16:32:43.688Z,1002.76
2018-08-31T16:33:43.725Z,1002.81
2018-08-31T16:34:43.670Z,1002.78
2018-08-31T16:35:43.678Z,1002.82
2018-08-31T16:36:43.681Z,1002.84
2018-08-31T16:37:43.632Z,1002.80
2018-08-31T16:38:43.678Z,1002.81
2018-08-31T16:39:43.680Z,1002.80
2018-08-31T16:40:43.600Z,1002.81
2018-08-31T16:41:43.584Z,1002.80
2018-08-31T16:42:43.598Z,1002.80
2018-08-31T16:43:43.595Z,1002.83
2018-08-31T16:44:43.596Z,1002.79
2018-08-31T16:45:43.587Z,1002.81
2018-08-31T16:46:43.537Z,1002.81
2018-08-31T16:47:43.521Z,1002.82
2018-08-31T16:48:43.512Z,1002.77
2018-08-31T16:49:43.499Z,1002.85
2018-08-31T16:50:43.497Z,1002.86
2018-08-31T16:51:43.522Z,1002.85
2018-08-31T16:52:43.466Z,1002.86
2018-08-31T16:53:43.457Z,1002.88
2018-08-31T16:54:43.457Z,1002.87
2018-08-31T16:55:43.442Z,1002.85
2018-08-31T16:56:43.428Z,1002.84
2018-08-31T16:57:43.479Z,1002.92
2018-08-31T16:58:43.428Z,1002.91
2018-08-31T16:59:43.393Z,1002.88
2018-08-31T17:00:43.377Z,1002.92
2018-08-31T17:01:43.379Z,1002.91
2018-08-31T17:02:43.406Z,1002.91
2018-08-31T17:03:43.421Z,1002.92
2018-08-31T17:04:43.340Z,1002.92
2018-08-31T17:05:43.325Z,1002.92
2018-08-31T17:06:43.330Z,1002.94
2018-08-31T17:07:43.363Z,1002.91
2018-08-31T17:08:43.380Z,1002.93
2018-08-31T17:09:43.321Z,1002.92
2018-08-31T17:10:43.282Z,1002.92
2018-08-31T17:11:43.274Z,1002.95
2018-08-31T17:12:43.254Z,1002.95
2018-08-31T17:13:43.238Z,1002.97
2018-08-31T17:14:43.237Z,1002.97
2018-08-31T17:15:43.256Z,1002.94
2018-08-31T17:16:43.277Z,1002.98
2018-08-31T17:17:43.203Z,1002.98
2018-08-31T17:18:43.195Z,1003.01
2018-08-31T17:19:43.180Z,1003.00
2018-08-31T17:20:43.179Z,1002.97
2018-08-31T17:21:43.181Z,1002.99
2018-08-31T17:22:43.145Z,1003.07
2018-08-31T17:23:43.130Z,1003.03
2018-08-31T17:24:43.138Z,1003.05
2018-08-31T17:25:43.124Z,1003.06
2018-08-31T17:26:43.106Z,1003.06
2018-08-31T17:27:43.131Z,1003.06
2018-08-31T17:28:43.088Z,1003.03
2018-08-31T17:29:43.070Z,1003.06
2018-08-31T17:30:43.104Z,1003.05
2018-08-31T17:31:43.113Z,1003.04
2018-08-31T17:32:43.031Z,1003.01
2018-08-31T17:33:43.065Z,1003.08
2018-08-31T17:34:43.014Z,1003.07
2018-08-31T17:35:43.006Z,1003.08
2018-08-31T17:36:42.992Z,1003.04
2018-08-31T17:37:42.980Z,1003.06
2018-08-31T18:21:04.540Z,1003.39
2018-08-31T18:22:04.481Z,1003.42
2018-08-31T18:23:04.470Z,1003.40
2018-08-31T18:24:04.460Z,1003.43
2018-08-31T18:25:04.459Z,1003.43
2018-08-31T18:26:04.439Z,1003.44
2018-08-31T18:27:04.474Z,1003.46
2018-08-31T18:28:04.424Z,1003.48
2018-08-31T18:29:04.414Z,1003.45
2018-08-31T18:30:04.393Z,1003.47
2018-08-31T18:31:04.388Z,1003.49
2018-08-31T18:32:04.381Z,1003.49
2018-08-31T18:33:04.444Z,1003.50
2018-08-31T18:34:04.372Z,1003.54
2018-08-31T18:35:04.345Z,1003.53
2018-08-31T18:36:04.343Z,1003.55
2018-08-31T18:37:04.331Z,1003.51
2018-08-31T18:38:04.317Z,1003.57
2018-08-31T18:39:04.802Z,1003.57
2018-08-31T18:40:04.464Z,1003.56
2018-08-31T18:41:04.299Z,1003.61
2018-08-31T18:42:04.264Z,1003.59
2018-08-31T18:43:04.272Z,1003.57
2018-08-31T18:44:04.264Z,1003.61
2018-08-31T18:45:04.279Z,1003.62
2018-08-31T18:46:04.282Z,1003.61
2018-08-31T18:47:04.231Z,1003.64
2018-08-31T18:48:04.202Z,1003.63
2018-08-31T18:49:04.218Z,1003.60
2018-08-31T18:50:04.179Z,1003.62
2018-08-31T18:51:04.793Z,1003.63
2018-08-31T18:52:04.157Z,1003.65
2018-08-31T18:53:04.145Z,1003.66
2018-08-31T18:54:04.150Z,1003.70
2018-08-31T18:55:04.122Z,1003.71
2018-08-31T18:56:04.112Z,1003.72
2018-08-31T18:57:04.140Z,1003.73
2018-08-31T18:58:04.171Z,1003.73
2018-08-31T18:59:04.080Z,1003.75
2018-08-31T19:00:04.089Z,1003.81
2018-08-31T19:01:04.059Z,1003.78
2018-08-31T19:02:04.047Z,1003.79
2018-08-31T19:03:04.070Z,1003.80
2018-08-31T19:04:04.026Z,1003.78
2018-08-31T19:05:04.020Z,1003.80
2018-08-31T19:06:04.008Z,1003.83
2018-08-31T19:07:04.102Z,1003.81
2018-08-31T19:08:03.986Z,1003.87
2018-08-31T19:09:04.003Z,1003.87
2018-08-31T19:10:03.959Z,1003.90
2018-08-31T19:11:04.022Z,1003.87
2018-08-31T19:12:03.947Z,1003.91
2018-08-31T19:13:03.940Z,1003.99
2018-08-31T19:14:03.926Z,1004.00
2018-08-31T19:15:03.936Z,1004.00
2018-08-31T19:16:03.892Z,1003.95
2018-08-31T19:17:03.885Z,1003.98
2018-08-31T19:18:03.870Z,1003.99
2018-08-31T19:19:03.865Z,1003.99
2018-08-31T19:20:03.863Z,1004.03
2018-08-31T19:21:03.870Z,1004.02
2018-08-31T19:22:03.857Z,1004.08
2018-08-31T19:23:03.826Z,1004.06
2018-08-31T19:24:03.832Z,1004.06
2018-08-31T19:25:03.872Z,1004.06
2018-08-31T19:26:03.833Z,1004.10
2018-08-31T19:27:03.839Z,1004.13
2018-08-31T19:28:03.852Z,1004.11
2018-08-31T19:29:03.754Z,1004.14
2018-08-31T19:30:03.748Z,1004.14
2018-08-31T19:31:03.775Z,1004.11
2018-08-31T19:32:03.723Z,1004.10
2018-08-31T19:33:03.749Z,1004.17
2018-08-31T19:34:03.714Z,1004.12
2018-08-31T19:35:03.711Z,1004.15
2018-08-31T19:36:03.696Z,1004.19
2018-08-31T19:37:03.670Z,1004.20
2018-08-31T19:38:03.678Z,1004.23
2018-08-31T19:39:03.713Z,1004.20
2018-08-31T19:40:03.634Z,1004.19
2018-08-31T19:41:03.684Z,1004.19
2018-08-31T19:42:03.617Z,1004.21
2018-08-31T19:43:03.596Z,1004.22
2018-08-31T19:44:03.593Z,1004.21
2018-08-31T19:45:03.628Z,1004.19
2018-08-31T19:46:03.601Z,1004.20
2018-08-31T19:47:03.581Z,1004.18
2018-08-31T19:48:03.575Z,1004.18
2018-08-31T19:49:03.547Z,1004.20
2018-08-31T19:50:03.563Z,1004.17
2018-08-31T19:51:03.555Z,1004.27
2018-08-31T19:52:03.502Z,1004.25
2018-08-31T19:53:03.489Z,1004.26
2018-08-31T19:54:03.586Z,1004.27
2018-08-31T19:55:03.484Z,1004.27
2018-08-31T19:56:03.478Z,1004.31
2018-08-31T19:57:03.478Z,1004.29
2018-08-31T19:58:03.438Z,1004.32
2018-08-31T19:59:03.461Z,1004.31
2018-08-31T20:00:03.410Z,1004.33
2018-08-31T20:01:03.416Z,1004.29
2018-08-31T20:02:03.399Z,1004.28
2018-08-31T20:03:03.473Z,1004.25
2018-08-31T20:04:03.410Z,1004.30
2018-08-31T20:05:03.371Z,1004.30
2018-08-31T20:06:03.365Z,1004.30
2018-08-31T20:07:03.424Z,1004.27
2018-08-31T20:08:03.355Z,1004.30
2018-08-31T20:09:03.345Z,1004.27
2018-08-31T20:10:03.310Z,1004.32
2018-08-31T20:11:03.291Z,1004.32
2018-08-31T20:12:03.281Z,1004.35
2018-08-31T20:13:03.281Z,1004.38
2018-08-31T20:14:03.270Z,1004.37
2018-08-31T20:15:03.442Z,1004.33
2018-08-31T20:16:03.262Z,1004.40
2018-08-31T20:17:03.275Z,1004.39
2018-08-31T20:18:03.222Z,1004.43
2018-08-31T20:19:03.217Z,1004.44
2018-08-31T20:20:03.206Z,1004.41
2018-08-31T20:21:03.240Z,1004.44
2018-08-31T20:22:03.172Z,1004.49
2018-08-31T20:23:03.200Z,1004.48
2018-08-31T20:24:03.205Z,1004.49
2018-08-31T20:25:03.150Z,1004.54
2018-08-31T20:26:03.166Z,1004.47
2018-08-31T20:27:03.152Z,1004.46
2018-08-31T20:28:03.120Z,1004.47
2018-08-31T20:29:03.092Z,1004.49
2018-08-31T20:30:03.100Z,1004.50
2018-08-31T20:31:03.201Z,1004.47
2018-08-31T20:32:03.082Z,1004.46
2018-08-31T20:33:03.116Z,1004.47
2018-08-31T20:34:03.056Z,1004.52
2018-08-31T20:35:03.028Z,1004.49
2018-08-31T20:36:03.021Z,1004.57
2018-08-31T20:37:02.998Z,1004.57
2018-08-31T20:38:02.996Z,1004.57
2018-08-31T20:39:03.021Z,1004.56
2018-08-31T20:40:02.986Z,1004.55
2018-08-31T20:41:02.966Z,1004.60
2018-08-31T20:42:02.950Z,1004.59
2018-08-31T20:43:02.996Z,1004.57
2018-08-31T20:44:02.925Z,1004.56
2018-08-31T20:45:02.945Z,1004.53
2018-08-31T20:46:02.935Z,1004.55
2018-08-31T20:47:02.894Z,1004.55
2018-08-31T20:48:02.883Z,1004.55
2018-08-31T20:49:02.874Z,1004.54
2018-08-31T20:50:02.863Z,1004.55
2018-08-31T20:51:02.876Z,1004.52
2018-08-31T20:52:02.850Z,1004.54
2018-08-31T20:53:02.824Z,1004.53
2018-08-31T20:54:02.838Z,1004.56
2018-08-31T20:55:02.812Z,1004.55
2018-08-31T20:56:02.804Z,1004.52
2018-08-31T20:57:02.831Z,1004.57
2018-08-31T20:58:02.779Z,1004.54
2018-08-31T20:59:02.774Z,1004.62
2018-08-31T21:00:02.751Z,1004.56
2018-08-31T21:01:02.754Z,1004.62
2018-08-31T21:02:02.734Z,1004.62
2018-08-31T21:03:02.758Z,1004.70
2018-08-31T21:04:02.705Z,1004.69
2018-08-31T21:05:02.706Z,1004.71
2018-08-31T21:06:02.692Z,1004.73
2018-08-31T21:07:02.672Z,1004.71
2018-08-31T21:08:02.675Z,1004.73
2018-08-31T21:09:02.686Z,1004.77
2018-08-31T21:10:02.637Z,1004.74
2018-08-31T21:11:02.628Z,1004.76
2018-08-31T21:12:02.622Z,1004.74
2018-08-31T21:13:02.619Z,1004.76
2018-08-31T21:14:02.598Z,1004.75
2018-08-31T21:15:02.627Z,1004.73
2018-08-31T21:16:02.583Z,1004.76
2018-08-31T21:17:02.597Z,1004.74
2018-08-31T21:18:02.549Z,1004.81
2018-08-31T21:19:02.539Z,1004.80
2018-08-31T21:20:02.531Z,1004.78
2018-08-31T21:21:02.567Z,1004.78
2018-08-31T21:22:02.506Z,1004.72
2018-08-31T21:23:02.494Z,1004.73
2018-08-31T21:24:02.489Z,1004.76
2018-08-31T21:25:02.474Z,1004.77
2018-08-31T21:26:02.464Z,1004.83
2018-08-31T21:27:02.493Z,1004.80
2018-08-31T21:28:02.440Z,1004.76
2018-08-31T21:29:02.428Z,1004.81
2018-08-31T21:30:02.422Z,1004.79
2018-08-31T21:31:02.415Z,1004.76
2018-08-31T21:32:02.454Z,1004.79
2018-08-31T21:33:02.437Z,1004.80
2018-08-31T21:34:02.374Z,1004.79
2018-08-31T21:35:02.364Z,1004.80
2018-08-31T21:36:02.357Z,1004.81
2018-08-31T21:37:02.341Z,1004.82
2018-08-31T21:38:02.331Z,1004.79
2018-08-31T21:39:02.387Z,1004.80
2018-08-31T21:40:02.319Z,1004.82
2018-08-31T21:41:02.305Z,1004.80
2018-08-31T21:42:02.354Z,1004.80
2018-08-31T21:43:02.302Z,1004.82
2018-08-31T21:44:02.793Z,1004.85
2018-08-31T21:45:02.290Z,1004.83
2018-08-31T21:46:02.253Z,1004.85
2018-08-31T21:47:02.244Z,1004.82
2018-08-31T21:48:02.291Z,1004.85
2018-08-31T21:49:02.240Z,1004.80
2018-08-31T21:50:02.238Z,1004.80
2018-08-31T21:51:02.244Z,1004.86
2018-08-31T21:52:02.192Z,1004.80
2018-08-31T21:53:02.186Z,1004.76
2018-08-31T21:54:02.191Z,1004.82
2018-08-31T21:55:02.191Z,1004.77
2018-08-31T21:56:02.145Z,1004.76
2018-08-31T21:57:02.199Z,1004.76
2018-08-31T21:58:02.126Z,1004.79
2018-08-31T21:59:02.119Z,1004.76
2018-08-31T22:00:02.092Z,1004.76
2018-08-31T22:01:02.092Z,1004.80
2018-08-31T22:02:02.079Z,1004.77
2018-08-31T22:03:02.093Z,1004.77
2018-08-31T22:04:02.050Z,1004.77
2018-08-31T22:05:02.049Z,1004.79
2018-08-31T22:06:02.026Z,1004.76
2018-08-31T22:07:02.019Z,1004.76
2018-08-31T22:08:02.003Z,1004.73
2018-08-31T22:09:02.031Z,1004.73
2018-08-31T22:10:01.994Z,1004.78
2018-08-31T22:11:01.971Z,1004.78
2018-08-31T22:12:01.961Z,1004.81
2018-08-31T22:13:01.949Z,1004.79
2018-08-31T22:14:01.939Z,1004.80
2018-08-31T22:15:01.961Z,1004.85
2018-08-31T22:16:01.924Z,1004.82
2018-08-31T22:17:01.915Z,1004.85
2018-08-31T22:18:01.898Z,1004.84
2018-08-31T22:19:01.890Z,1004.86
2018-08-31T22:20:01.877Z,1004.87
2018-08-31T22:21:01.892Z,1004.88
2018-08-31T22:22:01.858Z,1004.89
2018-08-31T22:23:01.855Z,1004.88
2018-08-31T22:24:01.833Z,1004.85
2018-08-31T22:25:01.828Z,1004.87
2018-08-31T22:26:01.811Z,1004.83
2018-08-31T22:27:01.845Z,1004.84
2018-08-31T22:28:01.796Z,1004.89
2018-08-31T22:29:01.786Z,1004.91
2018-08-31T22:30:01.803Z,1004.89
2018-08-31T22:31:01.787Z,1004.88
2018-08-31T22:32:01.748Z,1004.89
2018-08-31T22:33:01.774Z,1004.91
2018-08-31T22:34:01.726Z,1004.87
2018-08-31T22:35:01.723Z,1004.86
2018-08-31T22:36:01.706Z,1004.87
2018-08-31T22:37:01.711Z,1004.89
2018-08-31T22:38:01.683Z,1004.85
2018-08-31T22:39:01.712Z,1004.91
2018-08-31T22:40:01.673Z,1004.90
2018-08-31T22:41:01.643Z,1004.90
2018-08-31T22:42:01.654Z,1004.88
2018-08-31T22:43:01.632Z,1004.89
2018-08-31T22:44:01.633Z,1004.88
2018-08-31T22:45:01.662Z,1004.88
2018-08-31T22:46:01.600Z,1004.88
2018-08-31T22:47:01.588Z,1004.83
2018-08-31T22:48:01.588Z,1004.84
2018-08-31T22:49:01.565Z,1004.84
2018-08-31T22:50:01.586Z,1004.85
2018-08-31T22:51:01.578Z,1004.86
2018-08-31T22:52:01.543Z,1004.86
2018-08-31T22:53:01.528Z,1004.86
2018-08-31T22:54:01.527Z,1004.86
2018-08-31T22:55:01.503Z,1004.88
2018-08-31T22:56:01.489Z,1004.87
2018-08-31T22:57:01.505Z,1004.87
2018-08-31T22:58:01.469Z,1004.85
2018-08-31T22:59:01.457Z,1004.86
2018-08-31T23:00:01.444Z,1004.85
2018-08-31T23:01:01.440Z,1004.85
2018-08-31T23:02:01.419Z,1004.86
2018-08-31T23:03:01.453Z,1004.79
2018-08-31T23:04:01.400Z,1004.80
2018-08-31T23:05:01.389Z,1004.82
2018-08-31T23:06:01.382Z,1004.84
2018-08-31T23:07:01.368Z,1004.81
2018-08-31T23:08:01.358Z,1004.77
2018-08-31T23:09:01.371Z,1004.77
2018-08-31T23:10:01.339Z,1004.77
2018-08-31T23:11:01.322Z,1004.80
2018-08-31T23:12:01.309Z,1004.75
2018-08-31T23:13:01.334Z,1004.77
2018-08-31T23:14:01.386Z,1004.79
2018-08-31T23:15:01.325Z,1004.80
2018-08-31T23:16:01.338Z,1004.83
2018-08-31T23:17:01.268Z,1004.71
2018-08-31T23:18:01.274Z,1004.83
2018-08-31T23:19:01.244Z,1004.78
2018-08-31T23:20:01.259Z,1004.84
2018-08-31T23:21:01.260Z,1004.84
2018-08-31T23:22:01.204Z,1004.87
2018-08-31T23:23:01.192Z,1004.84
2018-08-31T23:24:01.183Z,1004.83
2018-08-31T23:25:01.183Z,1004.83
2018-08-31T23:26:01.161Z,1004.80
2018-08-31T23:27:01.195Z,1004.84
2018-08-31T23:28:01.140Z,1004.78
2018-08-31T23:29:01.145Z,1004.78
2018-08-31T23:30:01.124Z,1004.74
2018-08-31T23:31:01.108Z,1004.78
2018-08-31T23:32:01.098Z,1004.83
2018-08-31T23:33:01.114Z,1004.81
2018-08-31T23:34:01.105Z,1004.85
2018-08-31T23:35:01.059Z,1004.85
2018-08-31T23:36:01.064Z,1004.90
2018-08-31T23:37:01.060Z,1004.87
2018-08-31T23:38:01.049Z,1004.83
2018-08-31T23:39:01.076Z,1004.83
2018-08-31T23:40:01.016Z,1004.84
2018-08-31T23:41:00.996Z,1004.88
2018-08-31T23:42:00.984Z,1004.84
2018-08-31T23:43:00.997Z,1004.82
2018-08-31T23:44:00.972Z,1004.79
2018-08-31T23:45:00.987Z,1004.89
2018-08-31T23:46:00.962Z,1004.90
2018-08-31T23:47:00.940Z,1004.89
2018-08-31T23:48:00.956Z,1004.92
2018-08-31T23:49:00.923Z,1004.91
2018-08-31T23:50:00.910Z,1004.87
2018-08-31T23:51:00.935Z,1004.88
2018-08-31T23:52:00.928Z,1004.90
2018-08-31T23:53:00.884Z,1004.86
2018-08-31T23:54:00.862Z,1004.85
2018-08-31T23:55:00.841Z,1004.86
2018-08-31T23:56:00.855Z,1004.80
2018-08-31T23:57:00.862Z,1004.84
2018-08-31T23:58:00.815Z,1004.83
2018-08-31T23:59:00.830Z,1004.84
